Aérodrome :
LOGIN :

S'inscrire | Disclaimer

   EN    FR    IT 

 










Légende :    VFR   VFR Marginal   IFR   IFR Intensif   IFR Très Intensif
Visi : 
Plafond : 
>= 8 km
>= 3000ft
5 à 8 km
1000 à 3000 ft
1500m à 5 km
500 à 1000 ft
800 à 1500m
200 à 500 ft
< 800m
< 200 ft
Symboles :   Orages  Brouillard  Fortes neiges  Fortes précipitations  Vent > 20 kt
SIGMETs :   Divers  Orages  Givrage  Turbulence  Onde Orograph.  Cendres Volcan.






- Altitude de l'aérodrome : 274 ft
- Code IATA : PUY


LDPL - Pula

DERNIER METAR :
  • 070830Z 02011KT 9999 -RA FEW040 BKN050 06/03 Q1019 NOSIG

METARs EXPIRÉS :
  • 070800Z 04009KT 9999 -RA SCT047 BKN054 08/02 Q1018 TEMPO TS FEW030CB
  • 070730Z 04008KT 9999 BKN045 07/02 Q1018 NOSIG
  • 070700Z 04006KT 9999 FEW050 07/02 Q1018 NOSIG
  • 070630Z 06008KT 9999 FEW050 06/02 Q1017
  • 070600Z 05006KT 9999 FEW050 06/01 Q1017
  • 070530Z 05006KT CAVOK 06/01 Q1017
  • 070500Z 04004KT 360V060 CAVOK 06/01 Q1017
  • 070430Z 03006KT 9999 FEW030 06/01 Q1016
  • 070400Z 04003KT 020V090 9999 FEW030 05/02 Q1016

TAF TAF LDPL
Valide du 07 à 06h jusqu'au 08 à 06h UTC


070525Z 0706/0806 07007KT CAVOK TX11/0712Z TN02/0805Z



MET'MAP, la Météo Aéronautique d'un coup d'oeil ! - Copyright ORBIFLY Décembre 2007 - Disclaimer

ORBIFLY MET'MAP TEAM :

Programmation & Développement : Alexandra Zaïnal
Sur une idée originale de : Baudouin d'Aumeries
Soutien technique & logistique : Manuel Goepfert
Assistance : Marc-Olivier Méhu




SOURCES & CREDITS :

   NOAA